PASN

St Paul Island Airport

Airport
ICAO code
PASN
IATA Code
SNP
Summary
ICAO Region
NAM
ICAO Territory
Location

, Alaska

Serving
St. Paul Island
Elevation
63 ft
Coordinates
57° 10' 2" N , 170° 13' 14" W
Metar
PASN 251753Z AUTO 21006KT 3/4SM BR VV003 08/07 A2982 RMK AO2 SLP098 60002 T00780072 10078 20072 55004 TSNO

Runways

Designator Length Width Surface Rops
18/36 1981 46 ASP Yes/Yes

Airport map

Aerial View

SKYbrary Partners:

Safety knowledge contributed by: